Time;durP1;ratioP1;P1;durP2;ratioP2;P2;SDS_P1;SDS_P2;PMS_P1;PMS_P2;Temp;Humidity;BMP_temperature;BMP_pressure;BME280_temperature;BME280_humidity;BME280_pressure;Samples;Min_cycle;Max_cycle;Signal;HPM_P1;HPM_P2
2023/12/30 00:01:31;;;;;;;12.70;6.97;;;;;;;5.52;100.00;63504.66;5072951;28;20192;-55
2023/12/30 00:03:57;;;;;;;11.20;6.77;;;;;;;5.37;100.00;63491.38;5072970;28;20196;-55
2023/12/30 00:06:23;;;;;;;12.87;7.00;;;;;;;5.34;100.00;63487.56;5073038;28;20189;-55
2023/12/30 00:08:48;;;;;;;12.40;6.47;;;;;;;5.48;100.00;63502.78;5073441;28;20196;-54
2023/12/30 00:11:14;;;;;;;12.90;6.40;;;;;;;5.35;100.00;63488.66;5054852;28;20216;-55
2023/12/30 00:13:40;;;;;;;14.93;6.63;;;;;;;5.37;100.00;63490.81;5072656;28;20266;-56
2023/12/30 00:16:06;;;;;;;12.77;7.30;;;;;;;5.27;100.00;63480.50;5055012;28;20274;-55
2023/12/30 00:18:32;;;;;;;12.73;7.13;;;;;;;5.50;100.00;63503.03;5072770;28;20223;-55
2023/12/30 00:20:58;;;;;;;10.67;6.67;;;;;;;5.29;100.00;63482.13;5072616;28;20193;-55
2023/12/30 00:23:24;;;;;;;14.90;7.53;;;;;;;5.33;100.00;63487.03;5073039;28;20220;-57
2023/12/30 00:25:49;;;;;;;13.03;6.80;;;;;;;5.13;100.00;63468.28;5072623;28;20204;-55
2023/12/30 00:28:15;;;;;;;11.87;5.93;;;;;;;5.25;100.00;63475.25;5054610;28;20216;-55
2023/12/30 00:30:40;;;;;;;11.50;6.33;;;;;;;5.20;100.00;63469.81;5072526;28;20205;-54
2023/12/30 00:33:06;;;;;;;9.07;6.13;;;;;;;5.33;100.00;63486.47;5072480;28;20223;-53
2023/12/30 00:35:31;;;;;;;14.00;6.70;;;;;;;5.29;100.00;63482.13;5072502;28;20188;-54
2023/12/30 00:37:57;;;;;;;12.10;6.63;;;;;;;5.32;100.00;63485.38;5054479;28;20542;-54
2023/12/30 00:40:22;;;;;;;10.90;6.70;;;;;;;5.21;100.00;63473.97;5072568;28;20279;-53
2023/12/30 00:42:48;;;;;;;11.37;6.37;;;;;;;5.25;100.00;63478.31;5072432;28;20212;-55
2023/12/30 00:45:13;;;;;;;12.97;7.57;;;;;;;4.78;100.00;63427.69;5072616;28;20196;-56
2023/12/30 00:47:39;;;;;;;12.67;7.60;;;;;;;4.83;100.00;63432.59;5072483;28;20304;-56
2023/12/30 00:50:05;;;;;;;15.43;7.63;;;;;;;5.13;100.00;63463.28;5071751;28;20185;-54
2023/12/30 00:52:30;;;;;;;11.80;6.97;;;;;;;5.15;100.00;63466.88;5071671;28;20217;-54
2023/12/30 00:54:56;;;;;;;12.20;7.10;;;;;;;5.42;100.00;63493.75;5072108;28;20234;-54
2023/12/30 00:57:22;;;;;;;11.67;6.90;;;;;;;5.34;100.00;63487.56;5054234;28;20220;-55
2023/12/30 00:59:47;;;;;;;10.77;6.63;;;;;;;5.34;100.00;63488.09;5054155;28;20627;-55
2023/12/30 01:02:13;;;;;;;11.50;7.33;;;;;;;5.28;100.00;63481.03;5072030;28;20354;-53
2023/12/30 01:04:38;;;;;;;14.37;7.40;;;;;;;5.23;100.00;63475.59;5072197;28;20208;-53
2023/12/30 01:07:04;;;;;;;14.47;7.30;;;;;;;5.26;100.00;63479.38;5072004;28;20223;-53
2023/12/30 01:09:30;;;;;;;14.60;6.83;;;;;;;5.36;100.00;63489.72;5054211;28;20677;-53
2023/12/30 01:11:56;;;;;;;14.57;8.00;;;;;;;5.26;100.00;63478.84;5071937;28;20589;-55
2023/12/30 01:14:21;;;;;;;13.97;7.77;;;;;;;5.19;100.00;63471.78;5071781;28;20702;-55
2023/12/30 01:16:47;;;;;;;10.43;6.90;;;;;;;5.07;100.00;63459.25;5079776;22;20300;-54
2023/12/30 01:19:12;;;;;;;11.87;7.33;;;;;;;5.31;100.00;63484.28;5070954;28;20216;-55
2023/12/30 01:21:38;;;;;;;12.87;7.27;;;;;;;5.35;100.00;63488.66;5071480;28;20199;-58
2023/12/30 01:24:03;;;;;;;12.00;6.47;;;;;;;5.34;100.00;63485.59;5071724;28;20589;-55
2023/12/30 01:26:30;;;;;;;13.93;7.57;;;;;;;5.28;100.00;63481.03;5053472;28;20686;-55
2023/12/30 01:28:55;;;;;;;11.73;7.33;;;;;;;5.10;100.00;63461.97;5071857;28;20192;-54
2023/12/30 01:31:21;;;;;;;11.43;7.57;;;;;;;5.22;100.00;63472.00;5053626;28;20634;-54
2023/12/30 01:33:46;;;;;;;11.00;7.33;;;;;;;5.49;100.00;63504.44;5071322;28;20215;-54
2023/12/30 01:36:12;;;;;;;12.20;7.47;;;;;;;5.19;100.00;63468.72;5071543;28;20655;-54
2023/12/30 01:38:38;;;;;;;13.20;7.40;;;;;;;5.19;100.00;63471.78;5071604;28;20221;-53
2023/12/30 01:41:04;;;;;;;16.20;7.90;;;;;;;5.15;100.00;63469.91;5071510;28;20637;-53
2023/12/30 01:43:31;;;;;;;11.70;7.20;;;;;;;5.05;100.00;63456.53;5071394;28;20240;-54
2023/12/30 01:46:00;;;;;;;14.20;8.40;;;;;;;4.94;100.00;63442.63;5071318;28;20185;-54
2023/12/30 01:48:27;;;;;;;11.23;7.60;;;;;;;5.13;100.00;63464.69;5053495;28;20251;-59
2023/12/30 01:50:55;;;;;;;12.73;7.10;;;;;;;4.96;100.00;63452.28;5053344;28;20743;-54
2023/12/30 01:53:21;;;;;;;10.73;7.47;;;;;;;4.93;100.00;63440.97;5071626;28;20300;-54
2023/12/30 01:55:50;;;;;;;12.03;7.40;;;;;;;4.94;100.00;63444.56;5071239;28;20192;-53
2023/12/30 01:58:20;;;;;;;12.33;7.53;;;;;;;5.16;100.00;63468.50;5071554;28;20291;-53
2023/12/30 02:00:48;;;;;;;13.53;7.93;;;;;;;4.98;100.00;63448.91;5071312;28;20685;-55
2023/12/30 02:03:15;;;;;;;14.23;8.10;;;;;;;4.88;100.00;63438.03;5070681;28;20774;-54
2023/12/30 02:05:42;;;;;;;12.57;7.10;;;;;;;4.89;100.00;63439.66;5071029;28;20216;-53
2023/12/30 02:08:08;;;;;;;13.13;6.83;;;;;;;5.02;100.00;63450.78;5070923;28;20219;-62
2023/12/30 02:10:34;;;;;;;12.43;6.90;;;;;;;5.01;100.00;63452.72;5070990;28;20305;-56
2023/12/30 02:12:59;;;;;;;9.13;6.60;;;;;;;5.01;100.00;63452.16;5071244;28;20637;-55
2023/12/30 02:15:25;;;;;;;12.50;7.10;;;;;;;4.89;100.00;63439.13;5070961;28;20212;-56
2023/12/30 02:17:54;;;;;;;11.50;6.50;;;;;;;4.95;100.00;63440.66;5070830;28;20216;-54
2023/12/30 02:20:20;;;;;;;9.43;5.97;;;;;;;5.05;100.00;63457.06;5071248;28;20187;-55
2023/12/30 02:22:47;;;;;;;11.03;5.87;;;;;;;4.93;100.00;63441.53;5071120;28;20291;-55
2023/12/30 02:25:13;;;;;;;12.10;6.43;;;;;;;4.86;100.00;63436.41;5070758;28;20176;-56
2023/12/30 02:27:39;;;;;;;9.13;5.30;;;;;;;4.72;100.00;63423.66;5070765;28;20205;-55
2023/12/30 02:30:05;;;;;;;12.47;6.27;;;;;;;4.57;100.00;63404.84;5052767;28;20195;-55
2023/12/30 02:32:31;;;;;;;11.63;6.40;;;;;;;4.77;100.00;63421.06;5070785;28;20212;-54
2023/12/30 02:34:56;;;;;;;7.63;5.40;;;;;;;4.79;100.00;63428.22;5070762;28;20241;-54
2023/12/30 02:37:22;;;;;;;7.27;4.50;;;;;;;4.74;100.00;63425.84;5070470;28;20209;-59
2023/12/30 02:39:48;;;;;;;11.60;6.00;;;;;;;4.64;100.00;63414.41;5070794;28;20276;-53
2023/12/30 02:42:13;;;;;;;8.47;5.93;;;;;;;4.48;100.00;63392.56;5052862;28;20296;-52
2023/12/30 02:44:39;;;;;;;10.43;5.40;;;;;;;4.43;100.00;63389.63;5052720;28;20654;-53
2023/12/30 02:47:05;;;;;;;13.33;5.93;;;;;;;4.62;100.00;63410.28;5036059;28;20582;-56
2023/12/30 02:49:33;;;;;;;9.73;5.70;;;;;;;4.66;100.00;63414.66;5041556;23;20221;-56
2023/12/30 02:51:58;;;;;;;9.47;5.87;;;;;;;4.62;100.00;63410.28;5050456;28;20244;-52
2023/12/30 02:54:24;;;;;;;8.17;5.10;;;;;;;4.44;100.00;63392.66;5050443;28;20275;-52
2023/12/30 02:56:50;;;;;;;8.33;5.60;;;;;;;4.19;100.00;63366.00;5050441;28;20216;-53
2023/12/30 02:59:23;;;;;;;8.10;5.33;;;;;;;4.14;100.00;63358.63;5050662;28;20674;-52
2023/12/30 03:01:48;;;;;;;10.17;5.27;;;;;;;3.96;100.00;63338.53;5032457;28;20221;-52
2023/12/30 03:04:14;;;;;;;8.80;5.67;;;;;;;3.89;100.00;63333.94;5050338;28;20307;-61
2023/12/30 03:06:39;;;;;;;9.43;5.60;;;;;;;4.01;100.00;63344.50;5050361;28;20178;-53
2023/12/30 03:09:05;;;;;;;10.23;6.43;;;;;;;4.05;100.00;63350.78;5050472;28;20193;-52
2023/12/30 03:11:31;;;;;;;9.80;6.33;;;;;;;4.12;100.00;63353.97;5050227;28;20698;-58
2023/12/30 03:13:56;;;;;;;9.97;5.33;;;;;;;4.10;100.00;63351.25;5033416;28;20188;-53
2023/12/30 03:16:22;;;;;;;11.90;6.27;;;;;;;4.21;100.00;63368.75;5053660;28;20253;-52
2023/12/30 03:18:47;;;;;;;13.03;7.03;;;;;;;4.16;100.00;63360.81;5035867;28;20234;-52
2023/12/30 03:21:22;;;;;;;12.57;6.87;;;;;;;4.18;100.00;63364.94;5053701;28;20186;-53
2023/12/30 03:23:48;;;;;;;14.83;8.03;;;;;;;4.19;100.00;63363.53;5054306;28;20216;-52
2023/12/30 03:26:13;;;;;;;15.97;8.63;;;;;;;4.19;100.00;63364.06;5053815;28;20220;-52
2023/12/30 03:28:39;;;;;;;12.60;8.50;;;;;;;4.06;100.00;63352.41;5053781;28;20383;-52
2023/12/30 03:31:07;;;;;;;14.73;8.40;;;;;;;4.21;100.00;63368.75;5053506;28;20209;-53
2023/12/30 03:33:32;;;;;;;13.17;9.27;;;;;;;4.01;100.00;63343.94;5053635;28;20258;-53
2023/12/30 03:35:58;;;;;;;15.63;9.50;;;;;;;4.01;100.00;63344.50;5053414;28;20189;-55
2023/12/30 03:38:24;;;;;;;17.13;9.73;;;;;;;4.08;100.00;63354.06;5053461;28;20220;-54
2023/12/30 03:40:50;;;;;;;18.23;9.93;;;;;;;4.39;100.00;63385.28;5053387;28;20276;-53
2023/12/30 03:43:16;;;;;;;16.00;11.20;;;;;;;4.31;100.00;63376.56;5053162;28;20205;-57
2023/12/30 03:45:42;;;;;;;20.60;10.87;;;;;;;4.17;100.00;63361.91;5053272;28;20196;-53
2023/12/30 03:48:08;;;;;;;17.47;10.60;;;;;;;4.25;100.00;63370.59;5053464;28;20212;-56
2023/12/30 03:50:36;;;;;;;18.37;11.00;;;;;;;4.20;100.00;63365.16;5053086;28;20193;-53
2023/12/30 03:53:02;;;;;;;18.83;10.07;;;;;;;4.39;100.00;63385.28;5053381;28;20233;-52
2023/12/30 03:55:28;;;;;;;16.47;10.93;;;;;;;4.06;100.00;63349.41;5053183;28;20208;-53
2023/12/30 03:57:53;;;;;;;14.57;9.13;;;;;;;3.95;100.00;63337.44;5053269;28;20675;-54
2023/12/30 04:00:20;;;;;;;12.70;8.20;;;;;;;4.18;100.00;63362.44;5053214;28;20204;-54
2023/12/30 04:02:47;;;;;;;15.33;9.47;;;;;;;3.98;100.00;63343.19;5052838;28;20220;-53
2023/12/30 04:05:12;;;;;;;17.23;10.00;;;;;;;4.05;100.00;63350.78;5053090;28;20205;-52
2023/12/30 04:07:38;;;;;;;14.03;8.27;;;;;;;4.26;100.00;63371.16;5053070;28;20584;-53
2023/12/30 04:10:05;;;;;;;11.40;8.00;;;;;;;4.18;100.00;63362.97;5052819;28;20260;-54
2023/12/30 04:12:33;;;;;;;14.30;7.50;;;;;;;4.15;100.00;63359.16;5052703;28;20240;-54
2023/12/30 04:14:58;;;;;;;13.00;7.77;;;;;;;4.22;100.00;63367.31;5035047;28;20192;-55
2023/12/30 04:17:24;;;;;;;17.40;8.13;;;;;;;4.12;100.00;63358.94;5053103;28;20212;-54
2023/12/30 04:19:49;;;;;;;12.90;7.60;;;;;;;4.18;100.00;63362.97;5052845;28;20193;-53
2023/12/30 04:22:15;;;;;;;11.87;7.53;;;;;;;4.07;100.00;63350.47;5034800;28;20238;-54
2023/12/30 04:24:40;;;;;;;10.07;6.27;;;;;;;4.07;100.00;63351.03;5052618;28;20254;-53
2023/12/30 04:27:06;;;;;;;11.20;6.80;;;;;;;4.18;100.00;63362.44;5052832;28;20597;-53
2023/12/30 04:29:31;;;;;;;12.73;7.70;;;;;;;4.28;100.00;63373.84;5052726;28;20572;-62
2023/12/30 04:31:57;;;;;;;10.93;7.20;;;;;;;4.19;100.00;63363.53;5052514;28;20220;-54
2023/12/30 04:34:22;;;;;;;11.33;6.93;;;;;;;4.15;100.00;63356.69;5052674;28;20194;-59
2023/12/30 04:36:48;;;;;;;10.57;6.63;;;;;;;4.07;100.00;63348.53;5052639;28;20240;-54
2023/12/30 04:39:13;;;;;;;10.93;6.63;;;;;;;4.03;100.00;63346.13;5052609;28;20634;-53
2023/12/30 04:41:39;;;;;;;10.90;6.77;;;;;;;4.02;100.00;63342.56;5052480;28;20235;-53
2023/12/30 04:44:05;;;;;;;10.27;6.60;;;;;;;3.95;100.00;63337.44;5052499;28;20197;-53
2023/12/30 04:46:30;;;;;;;12.53;7.20;;;;;;;4.09;100.00;63353.19;5052197;28;20203;-53
2023/12/30 04:48:56;;;;;;;15.50;8.00;;;;;;;4.19;100.00;63361.03;5052499;28;20327;-53
2023/12/30 04:51:22;;;;;;;12.53;7.73;;;;;;;4.16;100.00;63360.28;5052160;28;20637;-53
2023/12/30 04:53:47;;;;;;;12.70;8.23;;;;;;;4.03;100.00;63346.13;5052693;28;20185;-54
2023/12/30 04:56:17;;;;;;;14.03;7.80;;;;;;;4.00;100.00;63343.41;5052248;28;20215;-54
2023/12/30 04:58:43;;;;;;;14.33;7.23;;;;;;;4.15;100.00;63356.69;5052453;28;20216;-53
2023/12/30 05:01:08;;;;;;;12.17;7.67;;;;;;;4.03;100.00;63346.13;5052258;28;20200;-53
2023/12/30 05:03:35;;;;;;;10.70;6.90;;;;;;;4.08;100.00;63352.09;5034190;28;20711;-52
2023/12/30 05:06:02;;;;;;;10.13;7.30;;;;;;;4.08;100.00;63352.09;5052056;28;20256;-53
2023/12/30 05:08:28;;;;;;;10.43;7.07;;;;;;;4.06;100.00;63349.41;5051852;28;20297;-53
2023/12/30 05:10:54;;;;;;;11.13;7.17;;;;;;;4.15;100.00;63359.16;5051882;28;20221;-57
2023/12/30 05:13:19;;;;;;;15.17;7.93;;;;;;;3.95;100.00;63337.97;5051663;28;20637;-59
2023/12/30 05:15:45;;;;;;;14.67;9.10;;;;;;;2.98;100.00;63233.13;5051910;28;20181;-52
2023/12/30 05:18:11;;;;;;;13.03;8.13;;;;;;;3.31;100.00;63268.97;5052139;28;20208;-53
2023/12/30 05:20:37;;;;;;;17.40;8.90;;;;;;;2.94;100.00;63228.78;5051734;28;20182;-54
2023/12/30 05:23:02;;;;;;;12.30;7.53;;;;;;;2.94;100.00;63228.25;5051907;28;20228;-54
2023/12/30 05:25:28;;;;;;;15.37;8.87;;;;;;;3.11;100.00;63246.72;5051720;28;20338;-53
2023/12/30 05:27:54;;;;;;;15.13;8.10;;;;;;;3.34;100.00;63274.16;5051795;28;20207;-53
2023/12/30 05:30:20;;;;;;;14.30;7.90;;;;;;;3.55;100.00;63296.44;5051629;28;20192;-52
2023/12/30 05:32:45;;;;;;;13.70;7.60;;;;;;;3.75;100.00;63313.19;5051469;28;20757;-52
2023/12/30 05:35:11;;;;;;;11.40;7.13;;;;;;;3.67;100.00;63307.53;5051707;28;20264;-51
2023/12/30 05:37:36;;;;;;;12.47;7.83;;;;;;;3.96;100.00;63341.03;5051114;28;20536;-53
2023/12/30 05:40:06;;;;;;;18.20;8.80;;;;;;;4.10;100.00;63356.25;5051267;28;20241;-53
2023/12/30 05:42:31;;;;;;;19.23;10.40;;;;;;;3.97;100.00;63337.13;5051544;28;20209;-54
2023/12/30 05:44:57;;;;;;;14.30;9.87;;;;;;;3.74;100.00;63317.63;5051416;28;20202;-54
2023/12/30 05:47:23;;;;;;;25.03;11.03;;;;;;;3.67;100.00;63309.50;5051475;28;20270;-53
2023/12/30 05:49:49;;;;;;;22.20;11.77;;;;;;;3.57;100.00;63296.13;5033670;28;20189;-53
2023/12/30 05:52:15;;;;;;;19.37;10.83;;;;;;;3.57;100.00;63299.16;5051404;28;20255;-55
2023/12/30 05:54:40;;;;;;;16.83;10.40;;;;;;;3.63;100.00;63305.69;5051210;28;20650;-54
2023/12/30 05:57:06;;;;;;;14.90;9.93;;;;;;;3.64;100.00;63303.72;5051046;28;20213;-53
2023/12/30 05:59:31;;;;;;;18.10;11.40;;;;;;;3.71;100.00;63311.34;5051079;28;20736;-54
2023/12/30 06:01:58;;;;;;;17.60;9.93;;;;;;;3.82;100.00;63323.28;5051114;28;20237;-53
2023/12/30 06:04:25;;;;;;;19.83;11.00;;;;;;;3.73;100.00;63311.56;5051191;28;20230;-55
2023/12/30 06:06:51;;;;;;;20.87;11.30;;;;;;;3.67;100.00;63309.50;5033218;28;20209;-55
2023/12/30 06:09:16;;;;;;;24.57;14.30;;;;;;;2.97;100.00;63231.50;5051125;28;20276;-56
2023/12/30 06:11:42;;;;;;;22.40;13.93;;;;;;;3.06;100.00;63238.78;5050951;28;20674;-54
2023/12/30 06:14:07;;;;;;;33.87;18.07;;;;;;;3.22;100.00;63258.66;5033099;28;20204;-53
2023/12/30 06:16:33;;;;;;;35.77;19.20;;;;;;;3.34;100.00;63271.69;5050830;28;20181;-52
2023/12/30 06:18:58;;;;;;;28.57;15.07;;;;;;;3.53;100.00;63292.34;5050885;28;20643;-52
2023/12/30 06:21:24;;;;;;;32.33;17.97;;;;;;;3.45;100.00;63281.16;5050935;28;20267;-53
2023/12/30 06:23:49;;;;;;;30.93;18.50;;;;;;;3.46;100.00;63284.72;5051238;28;20204;-52
2023/12/30 06:26:15;;;;;;;29.10;17.23;;;;;;;3.72;100.00;63315.47;5050860;28;20276;-52
2023/12/30 06:28:42;;;;;;;36.23;19.47;;;;;;;3.83;100.00;63326.88;5050994;28;20216;-52
2023/12/30 06:31:07;;;;;;;30.57;19.10;;;;;;;3.64;100.00;63301.25;5050829;28;20216;-52
2023/12/30 06:33:33;;;;;;;36.40;20.80;;;;;;;3.82;100.00;63320.78;5050857;28;20593;-52
2023/12/30 06:35:58;;;;;;;31.63;18.67;;;;;;;3.78;100.00;63318.94;5050756;28;20188;-53
2023/12/30 06:38:24;;;;;;;35.60;19.63;;;;;;;3.78;100.00;63317.00;5050836;28;20213;-53
2023/12/30 06:40:49;;;;;;;37.53;21.53;;;;;;;3.59;100.00;63298.84;5050623;28;20695;-53
2023/12/30 06:43:16;;;;;;;36.97;20.90;;;;;;;3.63;100.00;63300.16;5050499;28;20205;-53
2023/12/30 06:45:42;;;;;;;36.00;20.97;;;;;;;3.69;100.00;63309.16;5050558;28;20188;-52
2023/12/30 06:48:08;;;;;;;38.17;21.27;;;;;;;3.75;100.00;63318.19;5050809;28;20578;-52
2023/12/30 06:50:34;;;;;;;42.13;23.20;;;;;;;3.85;100.00;63326.56;5053636;28;20188;-52
2023/12/30 06:52:59;;;;;;;43.57;22.87;;;;;;;3.93;100.00;63332.75;5054133;28;20216;-54
2023/12/30 06:55:25;;;;;;;41.27;24.07;;;;;;;4.01;100.00;63344.50;5054289;28;20644;-54
2023/12/30 06:57:50;;;;;;;45.70;24.03;;;;;;;4.07;100.00;63351.03;5054155;28;20672;-54
2023/12/30 07:00:16;;;;;;;39.30;24.33;;;;;;;4.04;100.00;63345.25;5054097;28;20184;-54
2023/12/30 07:02:42;;;;;;;40.97;22.67;;;;;;;4.03;100.00;63344.19;5053922;28;20215;-55
2023/12/30 07:05:11;;;;;;;40.60;23.50;;;;;;;4.04;100.00;63347.22;5053992;28;20177;-55
2023/12/30 07:07:37;;;;;;;37.97;22.80;;;;;;;4.20;100.00;63365.16;5053759;28;20220;-54
2023/12/30 07:10:06;;;;;;;34.27;20.60;;;;;;;4.10;100.00;63354.28;5053861;28;20221;-53
2023/12/30 07:12:31;;;;;;;37.23;20.43;;;;;;;4.15;100.00;63354.19;5035828;28;20304;-54
2023/12/30 07:14:57;;;;;;;34.23;20.03;;;;;;;4.21;100.00;63363.75;5053733;28;20703;-55
2023/12/30 07:17:23;;;;;;;30.43;17.90;;;;;;;4.24;100.00;63369.50;5053798;28;20703;-55
2023/12/30 07:19:49;;;;;;;29.23;17.40;;;;;;;4.51;100.00;63400.81;5053791;28;20292;-55
2023/12/30 07:22:15;;;;;;;15.27;9.90;;;;;;;4.44;100.00;63390.16;5053534;28;20206;-52
2023/12/30 07:24:40;;;;;;;17.47;9.57;;;;;;;4.44;100.00;63388.22;5053540;28;20182;-52
2023/12/30 07:27:06;;;;;;;13.23;8.93;;;;;;;4.41;100.00;63386.91;5053433;28;20217;-53
2023/12/30 07:29:31;;;;;;;11.17;6.90;;;;;;;4.56;100.00;63401.28;5053431;28;20264;-53
2023/12/30 07:31:57;;;;;;;10.13;6.53;;;;;;;4.80;100.00;63429.88;5053412;28;20213;-52
2023/12/30 07:34:23;;;;;;;11.03;6.90;;;;;;;5.06;100.00;63458.16;5053500;28;20181;-51
2023/12/30 07:36:50;;;;;;;16.80;9.57;;;;;;;5.23;100.00;63473.09;5053384;28;20224;-52
2023/12/30 07:39:16;;;;;;;19.93;12.97;;;;;;;5.33;100.00;63487.03;5053302;28;20185;-52
2023/12/30 07:41:41;;;;;;;21.97;11.97;;;;;;;5.47;100.00;63501.72;5053365;28;20189;-53
2023/12/30 07:44:08;;;;;;;13.17;9.03;;;;;;;5.95;99.12;63551.50;5053439;28;20588;-54
2023/12/30 07:46:34;;;;;;;24.17;13.53;;;;;;;5.81;100.00;63541.25;5052916;28;20250;-53
2023/12/30 07:49:00;;;;;;;24.60;14.97;;;;;;;5.33;100.00;63487.03;5053078;28;20215;-53
2023/12/30 07:51:25;;;;;;;28.40;15.53;;;;;;;5.61;100.00;63516.97;5052917;28;20209;-53
2023/12/30 07:53:51;;;;;;;25.00;14.83;;;;;;;5.88;100.00;63543.88;5052964;28;20193;-53
2023/12/30 07:56:16;;;;;;;24.73;16.80;;;;;;;5.88;100.00;63546.91;5035157;28;20200;-53
2023/12/30 07:58:42;;;;;;;28.33;15.77;;;;;;;6.06;100.00;63565.97;5052862;28;20718;-56
2023/12/30 08:01:09;;;;;;;32.33;17.60;;;;;;;6.14;100.00;63572.19;5052650;28;20198;-56
2023/12/30 08:03:35;;;;;;;30.77;18.20;;;;;;;6.25;100.00;63586.69;5053047;28;20209;-53
2023/12/30 08:06:01;;;;;;;32.47;19.33;;;;;;;6.80;95.66;63646.09;5053059;28;20204;-55
2023/12/30 08:08:26;;;;;;;37.27;20.97;;;;;;;7.18;91.39;63687.00;5052988;28;20649;-53
2023/12/30 08:10:52;;;;;;;40.03;22.30;;;;;;;7.49;90.14;63723.84;5035201;28;20194;-53
2023/12/30 08:13:18;;;;;;;37.53;22.30;;;;;;;7.92;88.72;63764.69;5052752;28;20315;-57
2023/12/30 08:15:43;;;;;;;37.77;22.07;;;;;;;8.17;85.44;63792.53;5052955;28;20216;-53
2023/12/30 08:18:09;;;;;;;34.73;22.47;;;;;;;8.48;83.90;63828.38;5052784;28;20288;-54
2023/12/30 08:20:34;;;;;;;36.77;23.23;;;;;;;8.85;78.31;63865.72;5052736;28;20676;-53
2023/12/30 08:23:00;;;;;;;38.20;23.70;;;;;;;8.80;78.70;63860.28;5052834;28;20220;-56
2023/12/30 08:25:25;;;;;;;43.67;25.10;;;;;;;8.81;78.41;63861.34;5052840;28;20575;-58
2023/12/30 08:27:51;;;;;;;40.57;25.67;;;;;;;8.84;77.26;63865.19;5052908;28;20202;-55
2023/12/30 08:30:17;;;;;;;48.83;28.00;;;;;;;9.20;75.32;63909.56;5034900;28;20204;-56
2023/12/30 08:32:43;;;;;;;51.30;27.60;;;;;;;9.70;69.87;63961.16;5052523;28;20230;-56
2023/12/30 08:35:10;;;;;;;40.40;25.10;;;;;;;9.85;68.92;63977.56;5052744;28;20209;-53
2023/12/30 08:37:36;;;;;;;48.70;27.57;;;;;;;9.84;67.35;63973.94;5052429;28;20770;-53
2023/12/30 08:40:06;;;;;;;39.87;25.93;;;;;;;9.99;67.48;63989.81;5052359;28;20185;-54
2023/12/30 08:42:34;;;;;;;50.70;29.00;;;;;;;10.27;65.74;64022.44;5052585;28;20210;-55
2023/12/30 08:45:01;;;;;;;44.43;27.50;;;;;;;10.38;64.87;64031.97;5052221;28;20186;-55
2023/12/30 08:47:28;;;;;;;43.27;26.87;;;;;;;10.50;64.49;64047.63;5018020;28;20704;-55
2023/12/30 08:49:54;;;;;;;47.50;27.03;;;;;;;10.57;64.21;64055.28;5052188;28;20177;-56
2023/12/30 08:52:20;;;;;;;53.60;27.53;;;;;;;10.66;63.96;64065.13;5052090;28;20227;-54
2023/12/30 08:54:45;;;;;;;41.00;26.33;;;;;;;10.86;63.71;64084.50;5052238;28;20240;-54
2023/12/30 08:57:11;;;;;;;42.53;28.23;;;;;;;11.09;63.24;64109.69;5034216;28;20217;-53
2023/12/30 08:59:36;;;;;;;41.30;26.73;;;;;;;11.32;61.85;64137.41;5052184;28;20208;-54
2023/12/30 09:02:02;;;;;;;41.37;26.30;;;;;;;11.24;62.38;64128.63;5051888;28;20721;-54
2023/12/30 09:04:29;;;;;;;50.00;27.83;;;;;;;11.30;63.00;64134.66;5052120;28;20246;-54
2023/12/30 09:06:55;;;;;;;42.57;26.27;;;;;;;11.58;62.14;64163.38;5033899;28;20225;-54
2023/12/30 09:09:20;;;;;;;44.40;25.97;;;;;;;11.67;60.14;64173.25;5051922;28;20189;-53
2023/12/30 09:11:46;;;;;;;41.00;25.40;;;;;;;11.73;59.99;64179.28;5051087;28;20342;-53
2023/12/30 09:14:11;;;;;;;43.03;25.97;;;;;;;11.93;60.02;64201.19;5051897;28;20215;-54
2023/12/30 09:16:37;;;;;;;40.27;24.87;;;;;;;12.39;58.21;64251.06;5051759;28;20209;-55
2023/12/30 09:19:03;;;;;;;46.60;27.20;;;;;;;12.56;56.70;64267.72;5051804;28;20234;-54
2023/12/30 09:21:29;;;;;;;39.47;25.83;;;;;;;12.65;57.38;64280.13;5051666;28;20723;-55
2023/12/30 09:23:56;;;;;;;40.33;25.83;;;;;;;12.67;57.71;64281.78;5034171;28;20689;-53
2023/12/30 09:26:21;;;;;;;39.13;26.20;;;;;;;12.89;56.82;64303.38;5051821;28;20193;-56
2023/12/30 09:29:08;;;;;;;49.53;28.20;;;;;;;13.11;55.35;64329.53;5051864;28;20219;-54
2023/12/30 09:31:33;;;;;;;45.63;29.97;;;;;;;13.05;55.79;64322.94;5051283;28;20224;-58
2023/12/30 09:33:59;;;;;;;50.10;29.57;;;;;;;12.98;56.78;64313.25;5051518;28;20182;-56
2023/12/30 09:36:24;;;;;;;45.97;29.67;;;;;;;13.02;55.66;64319.63;5051401;28;20672;-56
2023/12/30 09:38:50;;;;;;;55.67;32.55;;;;;;;13.19;55.84;64338.84;5051598;28;20801;-55
2023/12/30 09:41:20;;;;;;;45.17;30.03;;;;;;;13.32;55.57;64352.56;5051550;28;20192;-56
2023/12/30 09:43:48;;;;;;;51.30;30.27;;;;;;;13.28;56.14;64351.25;5051210;28;20635;-55
2023/12/30 09:46:15;;;;;;;48.37;30.17;;;;;;;13.60;55.54;64382.75;5051189;28;20182;-54
2023/12/30 09:48:42;;;;;;;41.83;27.90;;;;;;;13.87;54.37;64409.88;5051648;28;20682;-53
2023/12/30 09:51:08;;;;;;;42.73;27.73;;;;;;;13.91;53.78;64416.81;5051197;28;20209;-53
2023/12/30 09:53:33;;;;;;;43.30;26.60;;;;;;;13.62;53.63;64385.50;5051493;28;20756;-58
2023/12/30 09:56:00;;;;;;;37.45;25.75;;;;;;;13.69;54.46;64390.13;5051395;28;20186;-52
2023/12/30 09:58:25;;;;;;;38.93;25.83;;;;;;;13.84;55.04;64409.09;5051291;28;20209;-53
2023/12/30 10:00:51;;;;;;;40.33;25.07;;;;;;;13.88;54.27;64414.06;5051181;28;20236;-54
2023/12/30 10:03:18;;;;;;;38.03;23.98;;;;;;;14.15;53.97;64440.63;5051107;28;20614;-56
2023/12/30 10:05:43;;;;;;;37.38;23.80;;;;;;;14.30;54.17;64459.66;5033126;28;20185;-54
2023/12/30 10:08:10;;;;;;;33.95;23.30;;;;;;;14.28;53.64;64454.94;5051140;28;20221;-54
2023/12/30 10:10:43;;;;;;;33.22;23.67;;;;;;;14.48;52.46;64478.91;5051124;28;20192;-53
2023/12/30 10:13:09;;;;;;;38.40;24.10;;;;;;;14.40;52.87;64467.56;5033118;28;20267;-52
2023/12/30 10:15:35;;;;;;;33.78;21.35;;;;;;;14.71;51.73;64501.63;5050795;28;20186;-54
2023/12/30 10:18:00;;;;;;;36.67;23.63;;;;;;;14.54;51.04;64486.03;5050938;28;20702;-52
2023/12/30 10:20:26;;;;;;;31.00;22.42;;;;;;;14.45;52.10;64475.59;5051011;28;20220;-51
2023/12/30 10:22:51;;;;;;;33.10;22.15;;;;;;;14.44;52.43;64471.97;5032773;28;20209;-53
2023/12/30 10:25:17;;;;;;;39.67;22.80;;;;;;;14.75;51.24;64506.00;5033114;28;20181;-52
2023/12/30 10:27:47;;;;;;;37.13;23.63;;;;;;;14.85;51.46;64517.56;5032450;28;20220;-53
2023/12/30 10:30:20;;;;;;;32.53;23.65;;;;;;;14.72;52.48;64503.28;5050711;28;20189;-54
2023/12/30 10:32:47;;;;;;;39.97;24.10;;;;;;;14.80;52.32;64512.06;5050552;28;20247;-54
2023/12/30 10:35:13;;;;;;;38.45;23.77;;;;;;;14.98;51.88;64534.41;5050594;28;20663;-53
2023/12/30 10:37:43;;;;;;;42.63;25.10;;;;;;;14.87;51.52;64519.75;5050801;28;20224;-52
2023/12/30 10:40:10;;;;;;;32.75;22.13;;;;;;;14.72;51.65;64502.72;5032558;28;20192;-54
2023/12/30 10:42:40;;;;;;;30.13;22.95;;;;;;;14.87;51.35;64524.84;5050455;28;20209;-52
2023/12/30 10:45:06;;;;;;;35.22;23.27;;;;;;;14.81;51.63;64515.69;5050871;28;20196;-54
2023/12/30 10:47:40;;;;;;;33.80;21.92;;;;;;;14.74;52.35;64504.94;5050534;28;20205;-54
2023/12/30 10:50:07;;;;;;;35.33;23.15;;;;;;;14.84;51.74;64515.91;5050456;28;20186;-54
2023/12/30 10:52:46;;;;;;;32.10;22.42;;;;;;;14.78;51.49;64509.88;5050816;28;20218;-54
2023/12/30 10:55:15;;;;;;;35.85;22.85;;;;;;;14.68;52.39;64501.44;5050209;28;20584;-54
2023/12/30 10:57:47;;;;;;;45.13;24.05;;;;;;;14.78;52.23;64512.41;5050498;28;20205;-53
2023/12/30 11:00:16;;;;;;;39.17;22.23;;;;;;;13.87;53.72;64414.94;5050372;28;20182;-60
2023/12/30 11:02:42;;;;;;;34.28;22.95;;;;;;;14.32;52.69;64459.34;5050329;28;20201;-53
2023/12/30 11:05:14;;;;;;;42.78;23.73;;;;;;;14.38;52.95;64468.47;5050068;28;20178;-55
2023/12/30 11:07:40;;;;;;;37.72;24.23;;;;;;;13.45;54.45;64366.84;5050501;28;20202;-57
2023/12/30 11:10:16;;;;;;;33.63;22.10;;;;;;;13.45;56.02;64364.31;5050401;28;20201;-57
2023/12/30 11:12:42;;;;;;;37.13;24.17;;;;;;;12.79;57.82;64296.91;5049963;28;20707;-54
2023/12/30 11:15:30;;;;;;;38.07;24.90;;;;;;;13.31;57.00;64351.47;5050052;28;20538;-53
2023/12/30 11:17:57;;;;;;;35.90;22.58;;;;;;;13.00;56.78;64318.00;5032154;28;20209;-53